createdAt,value
2023-04-04T00:00:39.155Z,100.00
2023-04-04T00:03:07.285Z,100.00
2023-04-04T00:05:35.612Z,100.00
2023-04-04T00:08:03.910Z,100.00
2023-04-04T00:10:33.037Z,100.00
2023-04-04T00:13:01.205Z,100.00
2023-04-04T00:15:28.980Z,100.00
2023-04-04T00:17:57.235Z,100.00
2023-04-04T00:20:25.124Z,100.00
2023-04-04T00:22:52.861Z,100.00
2023-04-04T00:25:20.708Z,100.00
2023-04-04T00:27:50.270Z,100.00
2023-04-04T00:30:18.058Z,100.00
2023-04-04T00:32:45.950Z,100.00
2023-04-04T00:35:13.809Z,100.00
2023-04-04T00:37:41.548Z,100.00
2023-04-04T00:40:10.204Z,100.00
2023-04-04T00:42:38.346Z,100.00
2023-04-04T00:45:08.973Z,100.00
2023-04-04T00:47:38.824Z,100.00
2023-04-04T00:50:08.413Z,100.00
2023-04-04T00:52:37.306Z,100.00
2023-04-04T00:55:06.416Z,100.00
2023-04-04T00:57:35.386Z,100.00
2023-04-04T01:00:05.270Z,100.00
2023-04-04T01:02:34.491Z,100.00
2023-04-04T01:05:04.414Z,100.00
2023-04-04T01:07:32.926Z,100.00
2023-04-04T01:10:02.413Z,100.00
2023-04-04T01:12:31.040Z,100.00
2023-04-04T01:14:58.810Z,100.00
2023-04-04T01:17:27.585Z,100.00
2023-04-04T01:20:04.299Z,100.00
2023-04-04T01:22:39.890Z,100.00
2023-04-04T01:25:10.081Z,100.00
2023-04-04T01:27:42.155Z,100.00
2023-04-04T01:30:16.876Z,100.00
2023-04-04T01:32:49.021Z,100.00
2023-04-04T01:35:24.697Z,100.00
2023-04-04T01:37:59.433Z,100.00
2023-04-04T01:40:35.010Z,100.00
2023-04-04T01:43:04.401Z,100.00
2023-04-04T01:45:35.371Z,100.00
2023-04-04T01:48:08.229Z,100.00
2023-04-04T01:50:36.191Z,100.00
2023-04-04T01:53:04.005Z,100.00
2023-04-04T01:55:32.153Z,100.00
2023-04-04T01:58:00.637Z,100.00
2023-04-04T02:00:29.823Z,100.00
2023-04-04T02:02:57.608Z,100.00
2023-04-04T02:05:25.709Z,100.00
2023-04-04T02:07:53.462Z,100.00
2023-04-04T02:10:31.016Z,100.00
2023-04-04T02:12:59.597Z,100.00
2023-04-04T02:15:29.043Z,100.00
2023-04-04T02:17:56.903Z,100.00
2023-04-04T02:20:24.689Z,100.00
2023-04-04T02:22:53.955Z,100.00
2023-04-04T02:25:23.028Z,100.00
2023-04-04T02:27:50.912Z,100.00
2023-04-04T02:30:19.432Z,100.00
2023-04-04T02:32:50.257Z,100.00
2023-04-04T02:35:20.603Z,100.00
2023-04-04T02:37:48.518Z,100.00
2023-04-04T02:40:24.132Z,100.00
2023-04-04T02:42:51.921Z,100.00
2023-04-04T02:45:21.540Z,100.00
2023-04-04T02:48:03.761Z,100.00
2023-04-04T02:50:40.513Z,100.00
2023-04-04T02:53:09.855Z,100.00
2023-04-04T02:55:38.065Z,100.00
2023-04-04T02:58:06.145Z,100.00
2023-04-04T03:00:34.007Z,100.00
2023-04-04T03:03:03.891Z,100.00
2023-04-04T03:05:35.200Z,100.00
2023-04-04T03:08:04.729Z,100.00
2023-04-04T03:10:32.615Z,100.00
2023-04-04T03:13:00.438Z,100.00
2023-04-04T03:15:30.609Z,100.00
2023-04-04T03:18:00.092Z,100.00
2023-04-04T03:20:31.360Z,100.00
2023-04-04T03:22:59.495Z,100.00
2023-04-04T03:25:27.682Z,100.00
2023-04-04T03:27:55.884Z,100.00
2023-04-04T03:30:28.041Z,100.00
2023-04-04T03:32:56.629Z,100.00
2023-04-04T03:35:24.531Z,100.00
2023-04-04T03:37:54.702Z,100.00
2023-04-04T03:40:22.503Z,100.00
2023-04-04T03:42:51.454Z,100.00
2023-04-04T03:45:21.062Z,100.00
2023-04-04T03:47:48.939Z,100.00
2023-04-04T03:50:16.858Z,100.00
2023-04-04T03:52:51.133Z,100.00
2023-04-04T03:55:21.136Z,100.00
2023-04-04T03:57:49.573Z,100.00
2023-04-04T04:00:18.244Z,100.00
2023-04-04T04:02:46.470Z,100.00
2023-04-04T04:05:14.513Z,100.00
2023-04-04T04:07:44.515Z,100.00
2023-04-04T04:10:14.008Z,100.00
2023-04-04T04:12:43.127Z,100.00
2023-04-04T04:15:11.646Z,100.00
2023-04-04T04:17:42.228Z,100.00
2023-04-04T04:20:12.841Z,100.00
2023-04-04T04:22:47.226Z,100.00
2023-04-04T04:25:15.838Z,100.00
2023-04-04T04:27:49.645Z,100.00
2023-04-04T04:30:20.844Z,100.00
2023-04-04T04:32:50.320Z,100.00
2023-04-04T04:35:20.483Z,100.00
2023-04-04T04:37:48.949Z,100.00
2023-04-04T04:40:18.027Z,100.00
2023-04-04T04:42:56.886Z,100.00
2023-04-04T04:45:25.614Z,100.00
2023-04-04T04:48:05.101Z,100.00
2023-04-04T04:50:35.543Z,100.00
2023-04-04T04:53:03.730Z,100.00
2023-04-04T04:55:31.930Z,100.00
2023-04-04T04:58:06.913Z,100.00
2023-04-04T05:00:34.841Z,100.00
2023-04-04T05:03:02.622Z,100.00
2023-04-04T05:05:38.868Z,100.00
2023-04-04T05:08:11.182Z,100.00
2023-04-04T05:10:46.000Z,100.00
2023-04-04T05:13:15.114Z,100.00
2023-04-04T05:15:48.328Z,100.00
2023-04-04T05:18:17.366Z,100.00
2023-04-04T05:20:51.974Z,100.00
2023-04-04T05:23:19.818Z,100.00
2023-04-04T05:25:50.004Z,100.00
2023-04-04T05:28:19.203Z,100.00
2023-04-04T05:30:47.046Z,100.00
2023-04-04T05:33:18.833Z,100.00
2023-04-04T05:35:56.703Z,100.00
2023-04-04T05:38:24.626Z,100.00
2023-04-04T05:40:54.599Z,100.00
2023-04-04T05:43:25.122Z,100.00
2023-04-04T05:46:00.024Z,100.00
2023-04-04T05:48:29.249Z,100.00
2023-04-04T05:50:57.318Z,100.00
2023-04-04T05:53:36.861Z,100.00
2023-04-04T05:56:05.772Z,100.00
2023-04-04T05:58:36.800Z,100.00
2023-04-04T06:01:08.052Z,100.00
2023-04-04T06:03:36.946Z,100.00
2023-04-04T06:06:08.136Z,100.00
2023-04-04T06:08:50.281Z,100.00
2023-04-04T06:11:21.758Z,100.00
2023-04-04T06:13:51.211Z,100.00
2023-04-04T06:16:21.096Z,100.00
2023-04-04T06:18:49.470Z,100.00
2023-04-04T06:21:17.691Z,100.00
2023-04-04T06:23:45.719Z,100.00
2023-04-04T06:26:14.812Z,100.00
2023-04-04T06:28:49.214Z,100.00
2023-04-04T06:31:21.222Z,100.00
2023-04-04T06:33:50.140Z,100.00
2023-04-04T06:36:19.828Z,100.00
2023-04-04T06:38:48.592Z,100.00
2023-04-04T06:41:21.874Z,100.00
2023-04-04T06:43:51.498Z,100.00
2023-04-04T06:46:19.372Z,100.00
2023-04-04T06:48:49.299Z,100.00
2023-04-04T06:51:18.440Z,100.00
2023-04-04T06:53:47.633Z,99.68
2023-04-04T06:56:15.398Z,98.83
2023-04-04T06:58:43.152Z,92.86
2023-04-04T07:01:11.745Z,92.18
2023-04-04T07:03:39.562Z,91.39
2023-04-04T07:06:08.644Z,92.20
2023-04-04T07:08:37.047Z,90.02
2023-04-04T07:11:05.204Z,89.43
2023-04-04T07:13:32.930Z,91.29
2023-04-04T07:16:00.701Z,89.83
2023-04-04T07:18:28.373Z,87.02
2023-04-04T07:20:56.123Z,83.59
2023-04-04T07:23:25.543Z,84.28
2023-04-04T07:25:53.320Z,84.15
2023-04-04T07:28:21.046Z,83.17
2023-04-04T07:30:48.761Z,82.67
2023-04-04T07:33:16.477Z,82.67
2023-04-04T07:35:44.233Z,79.48
2023-04-04T07:38:11.948Z,79.46
2023-04-04T07:40:41.562Z,78.89
2023-04-04T07:43:09.617Z,78.06
2023-04-04T07:45:37.353Z,76.47
2023-04-04T07:48:05.676Z,74.22
2023-04-04T07:50:33.441Z,75.97
2023-04-04T07:53:01.522Z,75.91
2023-04-04T07:55:29.266Z,73.54
2023-04-04T07:57:59.005Z,75.06
2023-04-04T08:00:26.998Z,76.64
2023-04-04T08:02:56.257Z,72.04
2023-04-04T08:05:24.519Z,71.34
2023-04-04T08:07:52.592Z,68.72
2023-04-04T08:10:22.581Z,68.04
2023-04-04T08:12:50.464Z,66.21
2023-04-04T08:15:19.572Z,66.23
2023-04-04T08:17:47.484Z,63.41
2023-04-04T08:20:15.530Z,60.16
2023-04-04T08:22:43.764Z,59.88
2023-04-04T08:25:11.937Z,58.91
2023-04-04T08:27:43.849Z,57.79
2023-04-04T08:30:13.365Z,58.08
2023-04-04T08:32:44.179Z,56.70
2023-04-04T08:35:12.259Z,55.79
2023-04-04T08:37:45.200Z,54.40
2023-04-04T08:40:13.561Z,54.71
2023-04-04T08:42:43.213Z,55.19
2023-04-04T08:45:12.803Z,59.53
2023-04-04T08:47:43.135Z,50.11
2023-04-04T08:50:11.643Z,51.26
2023-04-04T08:52:41.699Z,49.70
2023-04-04T08:55:10.277Z,50.20
2023-04-04T08:57:38.081Z,49.37
2023-04-04T09:00:07.681Z,49.41
2023-04-04T09:02:47.593Z,50.38
2023-04-04T09:05:15.557Z,49.56
2023-04-04T09:07:44.889Z,48.87
2023-04-04T09:10:13.263Z,49.59
2023-04-04T09:12:44.202Z,50.16
2023-04-04T09:15:12.769Z,49.34
2023-04-04T09:17:41.885Z,46.98
2023-04-04T09:20:37.406Z,47.44
2023-04-04T09:23:07.848Z,45.98
2023-04-04T09:25:35.939Z,48.29
2023-04-04T09:28:05.553Z,45.44
2023-04-04T09:30:35.454Z,45.63
2023-04-04T09:33:06.141Z,44.35
2023-04-04T09:35:36.422Z,44.29
2023-04-04T09:38:04.526Z,44.35
2023-04-04T09:40:32.627Z,46.04
2023-04-04T09:43:04.660Z,42.85
2023-04-04T09:45:33.466Z,42.76
2023-04-04T09:48:01.330Z,41.05
2023-04-04T09:50:30.662Z,40.47
2023-04-04T09:53:00.178Z,39.30
2023-04-04T09:55:38.358Z,38.59
2023-04-04T09:58:14.917Z,39.39
2023-04-04T10:00:44.958Z,38.99
2023-04-04T10:03:15.143Z,41.25
2023-04-04T10:05:46.696Z,41.98
2023-04-04T10:08:16.783Z,39.42
2023-04-04T10:11:02.496Z,41.27
2023-04-04T10:13:36.799Z,40.98
2023-04-04T10:16:05.638Z,40.13
2023-04-04T10:18:34.905Z,42.67
2023-04-04T10:21:15.396Z,42.48
2023-04-04T10:23:47.448Z,40.68
2023-04-04T10:26:15.414Z,37.23
2023-04-04T10:28:43.653Z,39.40
2023-04-04T10:31:18.420Z,38.10
2023-04-04T10:33:53.436Z,38.53
2023-04-04T10:36:25.495Z,40.71
2023-04-04T10:39:04.208Z,39.42
2023-04-04T10:41:33.419Z,39.29
2023-04-04T10:44:10.578Z,37.54
2023-04-04T10:46:42.732Z,38.16
2023-04-04T10:49:11.657Z,39.81
2023-04-04T10:51:49.184Z,39.56
2023-04-04T10:54:23.822Z,40.33
2023-04-04T10:56:53.883Z,40.57
2023-04-04T10:59:21.900Z,38.06
2023-04-04T11:01:51.963Z,39.13
2023-04-04T11:04:22.038Z,40.32
2023-04-04T11:07:14.449Z,38.36
2023-04-04T11:09:53.031Z,39.34
2023-04-04T11:12:28.407Z,40.88
2023-04-04T11:15:08.400Z,39.83
2023-04-04T11:17:43.968Z,39.86
2023-04-04T11:20:12.078Z,42.94
2023-04-04T11:22:43.811Z,42.69
2023-04-04T11:25:30.515Z,39.28
2023-04-04T11:27:59.162Z,38.99
2023-04-04T11:30:28.443Z,40.40
2023-04-04T11:33:07.029Z,42.13
2023-04-04T11:35:39.612Z,42.46
2023-04-04T11:38:16.872Z,41.19
2023-04-04T11:40:54.407Z,42.76
2023-04-04T11:43:24.949Z,41.18
2023-04-04T11:45:52.805Z,40.31
2023-04-04T11:48:21.715Z,39.90
2023-04-04T11:50:51.374Z,41.87
2023-04-04T11:53:21.047Z,42.34
2023-04-04T11:55:51.485Z,42.96
2023-04-04T11:58:20.346Z,39.13
2023-04-04T12:00:48.118Z,39.11
2023-04-04T12:03:18.470Z,37.78
2023-04-04T12:05:47.893Z,37.16
2023-04-04T12:08:17.911Z,35.38
2023-04-04T12:10:47.016Z,35.81
2023-04-04T12:13:14.717Z,35.27
2023-04-04T12:15:43.973Z,35.56
2023-04-04T12:18:11.825Z,36.51
2023-04-04T12:20:43.621Z,34.41
2023-04-04T12:23:12.090Z,34.13
2023-04-04T12:25:44.815Z,32.81
2023-04-04T12:28:15.000Z,34.93
2023-04-04T12:30:43.495Z,35.45
2023-04-04T12:33:11.396Z,37.90
2023-04-04T12:35:39.676Z,37.32
2023-04-04T12:38:10.595Z,36.51
2023-04-04T12:40:39.625Z,35.96
2023-04-04T12:43:08.881Z,33.12
2023-04-04T12:45:41.763Z,34.51
2023-04-04T12:48:13.698Z,37.50
2023-04-04T12:50:52.601Z,34.32
2023-04-04T12:53:28.916Z,34.96
2023-04-04T12:56:03.106Z,34.41
2023-04-04T12:58:34.241Z,32.68
2023-04-04T13:01:06.859Z,32.76
2023-04-04T13:03:35.383Z,33.32
2023-04-04T13:06:03.734Z,32.89
2023-04-04T13:08:31.768Z,32.26
2023-04-04T13:11:02.829Z,35.30
2023-04-04T13:13:35.517Z,32.79
2023-04-04T13:16:06.259Z,32.38
2023-04-04T13:18:37.346Z,32.87
2023-04-04T13:21:05.702Z,33.68
2023-04-04T13:23:34.109Z,30.97
2023-04-04T13:26:01.860Z,32.08
2023-04-04T13:28:29.562Z,32.25
2023-04-04T13:30:57.312Z,34.36
2023-04-04T13:33:26.601Z,35.00
2023-04-04T13:35:54.548Z,35.10
2023-04-04T13:38:27.299Z,34.20
2023-04-04T13:40:55.347Z,34.40
2023-04-04T13:43:23.234Z,32.77
2023-04-04T13:45:52.959Z,31.78
2023-04-04T13:48:20.753Z,30.96
2023-04-04T13:50:51.402Z,30.11
2023-04-04T13:53:19.647Z,31.65
2023-04-04T13:56:13.241Z,30.96
2023-04-04T13:58:35.045Z,31.88
2023-04-04T14:01:04.252Z,29.85
2023-04-04T14:03:32.525Z,31.13
2023-04-04T14:06:09.241Z,34.25
2023-04-04T14:08:38.381Z,34.37
2023-04-04T14:11:06.621Z,33.01
2023-04-04T14:13:34.393Z,33.23
2023-04-04T14:16:02.179Z,33.14
2023-04-04T14:18:29.910Z,32.77
2023-04-04T14:20:57.758Z,31.71
2023-04-04T14:23:27.134Z,32.35
2023-04-04T14:25:54.928Z,32.20
2023-04-04T14:28:22.646Z,33.86
2023-04-04T14:30:51.523Z,34.26
2023-04-04T14:33:19.307Z,34.98
2023-04-04T14:35:46.991Z,34.78
2023-04-04T14:38:14.701Z,34.30
2023-04-04T14:40:43.857Z,34.43
2023-04-04T14:43:11.631Z,36.56
2023-04-04T14:45:39.859Z,36.14
2023-04-04T14:48:07.869Z,35.88
2023-04-04T14:50:36.403Z,36.03
2023-04-04T14:53:05.038Z,34.72
2023-04-04T14:55:32.721Z,33.02
2023-04-04T14:58:03.193Z,35.19
2023-04-04T15:00:31.443Z,36.08
2023-04-04T15:02:59.430Z,36.76
2023-04-04T15:05:27.235Z,36.17
2023-04-04T15:07:55.525Z,39.98
2023-04-04T15:10:23.968Z,40.95
2023-04-04T15:12:51.855Z,36.73
2023-04-04T15:15:23.144Z,35.18
2023-04-04T15:17:52.001Z,37.09
2023-04-04T15:20:21.583Z,34.60
2023-04-04T15:22:49.285Z,36.62
2023-04-04T15:25:17.041Z,37.60
2023-04-04T15:27:44.807Z,38.84
2023-04-04T15:30:14.073Z,37.01
2023-04-04T15:32:43.372Z,38.35
2023-04-04T15:35:17.464Z,37.02
2023-04-04T15:37:45.209Z,39.12
2023-04-04T15:40:13.384Z,38.62
2023-04-04T15:42:41.299Z,35.60
2023-04-04T15:45:10.164Z,36.51
2023-04-04T15:47:38.228Z,38.30
2023-04-04T15:50:08.918Z,39.14
2023-04-04T15:52:36.852Z,38.45
2023-04-04T15:55:04.941Z,39.00
2023-04-04T15:57:32.725Z,38.57
2023-04-04T16:00:00.431Z,38.76
2023-04-04T16:02:28.260Z,38.89
2023-04-04T16:04:57.386Z,38.64
2023-04-04T16:07:26.547Z,39.47
2023-04-04T16:09:54.436Z,39.37
2023-04-04T16:12:22.413Z,40.00
2023-04-04T16:14:50.257Z,38.21
2023-04-04T16:17:17.985Z,39.80
2023-04-04T16:19:46.636Z,40.72
2023-04-04T16:22:15.238Z,41.91
2023-04-04T16:24:44.476Z,41.67
2023-04-04T16:27:12.205Z,41.98
2023-04-04T16:29:39.952Z,43.27
2023-04-04T16:32:08.189Z,41.44
2023-04-04T16:34:38.788Z,40.49
2023-04-04T16:37:06.721Z,42.95
2023-04-04T16:39:34.437Z,42.57
2023-04-04T16:42:03.644Z,43.10
2023-04-04T16:44:31.946Z,42.76
2023-04-04T16:46:59.915Z,44.01
2023-04-04T16:49:27.642Z,43.81
2023-04-04T16:51:55.329Z,44.85
2023-04-04T16:54:23.058Z,44.96
2023-04-04T16:56:51.020Z,46.11
2023-04-04T16:59:28.918Z,46.33
2023-04-04T17:01:56.628Z,42.25
2023-04-04T17:04:24.499Z,43.09
2023-04-04T17:06:52.259Z,45.82
2023-04-04T17:09:19.994Z,46.49
2023-04-04T17:11:47.715Z,48.30
2023-04-04T17:14:15.442Z,46.53
2023-04-04T17:16:44.814Z,47.87
2023-04-04T17:19:12.505Z,49.02
2023-04-04T17:21:40.243Z,48.38
2023-04-04T17:24:08.046Z,48.21
2023-04-04T17:26:46.440Z,51.53
2023-04-04T17:29:15.451Z,53.05
2023-04-04T17:31:48.747Z,51.42
2023-04-04T17:34:18.345Z,50.38
2023-04-04T17:36:47.011Z,53.14
2023-04-04T17:39:15.093Z,53.01
2023-04-04T17:41:43.456Z,55.34
2023-04-04T17:44:11.520Z,58.54
2023-04-04T17:46:40.572Z,59.46
2023-04-04T17:49:10.430Z,62.12
2023-04-04T17:51:38.497Z,62.26
2023-04-04T17:54:06.617Z,62.42
2023-04-04T17:56:34.392Z,63.01
2023-04-04T17:59:02.293Z,64.66
2023-04-04T18:01:30.650Z,63.72
2023-04-04T18:03:58.550Z,65.41
2023-04-04T18:06:29.251Z,66.76
2023-04-04T18:08:57.333Z,65.82
2023-04-04T18:11:25.243Z,67.69
2023-04-04T18:13:55.451Z,67.49
2023-04-04T18:16:23.759Z,70.16
2023-04-04T18:18:51.771Z,75.86
2023-04-04T18:21:19.836Z,76.51
2023-04-04T18:23:51.498Z,79.18
2023-04-04T18:26:19.419Z,83.19
2023-04-04T18:28:50.019Z,85.24
2023-04-04T18:31:17.930Z,85.12
2023-04-04T18:33:49.669Z,87.10
2023-04-04T18:36:18.856Z,90.52
2023-04-04T18:38:46.889Z,91.51
2023-04-04T18:41:17.389Z,91.14
2023-04-04T18:43:45.341Z,92.73
2023-04-04T18:46:13.159Z,93.23
2023-04-04T18:48:44.249Z,94.57
2023-04-04T18:51:12.254Z,94.91
2023-04-04T18:53:39.963Z,96.03
2023-04-04T18:56:10.113Z,97.86
2023-04-04T18:58:39.171Z,97.70
2023-04-04T19:01:09.527Z,98.74
2023-04-04T19:03:42.737Z,99.10
2023-04-04T19:06:13.239Z,100.00
2023-04-04T19:08:42.322Z,100.00
2023-04-04T19:11:10.612Z,100.00
2023-04-04T19:13:39.833Z,100.00
2023-04-04T19:16:07.806Z,100.00
2023-04-04T19:18:35.903Z,100.00
2023-04-04T19:21:05.508Z,100.00
2023-04-04T19:23:34.753Z,100.00
2023-04-04T19:26:02.592Z,100.00
2023-04-04T19:28:31.422Z,100.00
2023-04-04T19:31:01.866Z,100.00
2023-04-04T19:33:33.366Z,100.00
2023-04-04T19:36:07.828Z,100.00
2023-04-04T19:38:36.919Z,100.00
2023-04-04T19:41:09.054Z,100.00
2023-04-04T19:43:41.804Z,100.00
2023-04-04T19:46:12.966Z,100.00
2023-04-04T19:48:48.497Z,100.00
2023-04-04T19:51:38.796Z,100.00
2023-04-04T19:54:09.564Z,100.00
2023-04-04T19:56:38.686Z,100.00
2023-04-04T19:59:09.225Z,100.00
2023-04-04T20:01:44.647Z,100.00
2023-04-04T20:04:15.185Z,100.00
2023-04-04T20:06:43.027Z,100.00
2023-04-04T20:09:14.339Z,100.00
2023-04-04T20:11:42.338Z,100.00
2023-04-04T20:14:11.196Z,100.00
2023-04-04T20:16:48.064Z,100.00
2023-04-04T20:19:17.269Z,100.00
2023-04-04T20:21:45.121Z,100.00
2023-04-04T20:24:18.021Z,100.00
2023-04-04T20:26:54.609Z,100.00
2023-04-04T20:29:25.336Z,100.00
2023-04-04T20:31:56.376Z,100.00
2023-04-04T20:34:33.906Z,100.00
2023-04-04T20:37:05.025Z,100.00
2023-04-04T20:39:38.830Z,100.00
2023-04-04T20:42:20.115Z,100.00
2023-04-04T20:44:48.060Z,100.00
2023-04-04T20:47:42.704Z,100.00
2023-04-04T20:50:46.214Z,100.00
2023-04-04T20:53:19.443Z,100.00
2023-04-04T20:55:47.262Z,100.00
2023-04-04T20:58:38.972Z,100.00
2023-04-04T21:01:10.226Z,100.00
2023-04-04T21:03:40.101Z,100.00
2023-04-04T21:06:13.158Z,100.00
2023-04-04T21:08:44.464Z,100.00
2023-04-04T21:11:14.039Z,100.00
2023-04-04T21:13:43.283Z,100.00
2023-04-04T21:16:12.724Z,100.00
2023-04-04T21:18:42.484Z,100.00
2023-04-04T21:21:13.343Z,100.00
2023-04-04T21:23:46.832Z,100.00
2023-04-04T21:26:29.484Z,100.00
2023-04-04T21:29:00.871Z,100.00
2023-04-04T21:31:34.974Z,100.00
2023-04-04T21:34:12.429Z,100.00
2023-04-04T21:36:41.354Z,100.00
2023-04-04T21:39:12.453Z,100.00
2023-04-04T21:41:40.660Z,100.00
2023-04-04T21:44:10.887Z,100.00
2023-04-04T21:46:40.273Z,100.00
2023-04-04T21:49:10.492Z,100.00
2023-04-04T21:51:38.596Z,100.00
2023-04-04T21:54:07.398Z,100.00
2023-04-04T21:56:35.399Z,100.00
2023-04-04T21:59:05.114Z,100.00
2023-04-04T22:01:33.076Z,100.00
2023-04-04T22:04:01.243Z,100.00
2023-04-04T22:06:35.035Z,100.00
2023-04-04T22:09:04.116Z,100.00
2023-04-04T22:11:34.740Z,100.00
2023-04-04T22:14:06.862Z,100.00
2023-04-04T22:16:39.389Z,100.00
2023-04-04T22:19:10.716Z,100.00
2023-04-04T22:21:46.618Z,100.00
2023-04-04T22:24:17.842Z,100.00
2023-04-04T22:26:46.654Z,100.00
2023-04-04T22:29:14.679Z,100.00
2023-04-04T22:31:42.486Z,100.00
2023-04-04T22:34:11.858Z,100.00
2023-04-04T22:36:43.684Z,100.00
2023-04-04T22:39:16.469Z,100.00
2023-04-04T22:41:44.345Z,100.00
2023-04-04T22:44:12.047Z,100.00
2023-04-04T22:46:39.846Z,100.00
2023-04-04T22:49:08.796Z,100.00
2023-04-04T22:51:43.974Z,100.00
2023-04-04T22:54:15.469Z,100.00
2023-04-04T22:56:43.317Z,100.00
2023-04-04T22:59:11.476Z,100.00
2023-04-04T23:01:39.442Z,100.00
2023-04-04T23:04:07.462Z,100.00
2023-04-04T23:06:35.756Z,100.00
2023-04-04T23:09:03.490Z,100.00
2023-04-04T23:11:32.567Z,100.00
2023-04-04T23:14:00.558Z,100.00
2023-04-04T23:16:31.001Z,100.00
2023-04-04T23:18:58.728Z,100.00
2023-04-04T23:21:28.703Z,100.00
2023-04-04T23:23:57.522Z,100.00
2023-04-04T23:26:25.333Z,100.00
2023-04-04T23:28:56.740Z,100.00
2023-04-04T23:31:25.613Z,100.00
2023-04-04T23:33:55.740Z,100.00
2023-04-04T23:36:23.881Z,100.00
2023-04-04T23:38:51.595Z,100.00
2023-04-04T23:41:19.292Z,100.00
2023-04-04T23:43:49.182Z,100.00
2023-04-04T23:46:18.327Z,100.00
2023-04-04T23:48:46.466Z,100.00
2023-04-04T23:51:16.062Z,100.00
2023-04-04T23:53:44.078Z,100.00
2023-04-04T23:56:12.367Z,100.00
2023-04-04T23:58:40.469Z,100.00
